Time;durP1;ratioP1;P1;durP2;ratioP2;P2;SDS_P1;SDS_P2;PMS_P1;PMS_P2;Temp;Humidity;BMP_temperature;BMP_pressure;BME280_temperature;BME280_humidity;BME280_pressure;Samples;Min_cycle;Max_cycle;Signal;HPM_P1;HPM_P2
2022/11/25 00:01:50;;;;;;;11.90;8.63;;;;;;;;;;5073168;28;20437;-43
2022/11/25 00:04:17;;;;;;;20.20;9.63;;;;;;;;;;5073428;28;20507;-43
2022/11/25 00:06:43;;;;;;;10.77;8.20;;;;;;;;;;5073433;28;20472;-43
2022/11/25 00:09:11;;;;;;;11.13;8.43;;;;;;;;;;5073295;28;20489;-43
2022/11/25 00:11:38;;;;;;;12.47;8.93;;;;;;;;;;5073394;28;20503;-42
2022/11/25 00:14:04;;;;;;;14.63;9.00;;;;;;;;;;5073261;28;20538;-43
2022/11/25 00:16:30;;;;;;;13.03;8.07;;;;;;;;;;5073200;28;20434;-42
2022/11/25 00:18:57;;;;;;;14.67;8.50;;;;;;;;;;5073304;28;20466;-43
2022/11/25 00:21:25;;;;;;;9.93;7.37;;;;;;;;;;5073115;28;20440;-43
2022/11/25 00:23:52;;;;;;;11.73;7.00;;;;;;;;;;5073404;28;20812;-43
2022/11/25 00:26:18;;;;;;;13.73;7.30;;;;;;;;;;5072717;28;20440;-43
2022/11/25 00:28:45;;;;;;;10.70;7.30;;;;;;;;;;5073067;28;20473;-43
2022/11/25 00:31:12;;;;;;;11.03;7.27;;;;;;;;;;5054285;28;20443;-43
2022/11/25 00:33:38;;;;;;;11.90;7.27;;;;;;;;;;5052987;28;20447;-43
2022/11/25 00:36:05;;;;;;;11.30;7.10;;;;;;;;;;5053012;28;20955;-43
2022/11/25 00:38:33;;;;;;;13.97;7.70;;;;;;;;;;5052549;28;20944;-42
2022/11/25 00:46:28;;;;;;;10.50;7.63;;;;;;;;;;5052693;28;21063;-42
2022/11/25 00:48:54;;;;;;;12.60;7.77;;;;;;;;;;5052652;28;20525;-43
2022/11/25 00:51:20;;;;;;;12.50;8.00;;;;;;;;;;5052157;28;20293;-42
2022/11/25 00:53:48;;;;;;;12.57;6.80;;;;;;;;;;5052309;28;20929;-43
2022/11/25 00:56:14;;;;;;;7.33;6.13;;;;;;;;;;5052113;28;20283;-43
2022/11/25 00:58:40;;;;;;;14.80;7.40;;;;;;;;;;5049189;28;20467;-43
2022/11/25 01:01:06;;;;;;;13.07;6.93;;;;;;;;;;5052524;28;20438;-43
2022/11/25 01:03:33;;;;;;;11.93;6.10;;;;;;;;;;5057720;28;20439;-43
2022/11/25 01:06:00;;;;;;;11.97;6.50;;;;;;;;;;5052506;28;20446;-44
2022/11/25 01:08:26;;;;;;;8.50;6.77;;;;;;;;;;5052215;28;20501;-50
2022/11/25 01:10:58;;;;;;;12.57;6.80;;;;;;;;;;5052546;28;20426;-43
2022/11/25 01:13:25;;;;;;;12.37;6.10;;;;;;;;;;5052229;28;20446;-43
2022/11/25 01:15:51;;;;;;;9.90;5.60;;;;;;;;;;5052457;28;20488;-43
2022/11/25 01:18:17;;;;;;;10.57;5.80;;;;;;;;;;5052211;28;20441;-43
2022/11/25 01:20:43;;;;;;;7.63;5.33;;;;;;;;;;5052397;28;20542;-43
2022/11/25 01:23:09;;;;;;;11.03;5.57;;;;;;;;;;5052374;28;20502;-43
2022/11/25 01:25:36;;;;;;;9.93;4.90;;;;;;;;;;5052189;28;20987;-43
2022/11/25 01:28:03;;;;;;;8.20;5.17;;;;;;;;;;5052019;28;20525;-43
2022/11/25 01:30:30;;;;;;;9.17;4.90;;;;;;;;;;5052177;28;20450;-43
2022/11/25 01:32:56;;;;;;;11.13;5.27;;;;;;;;;;5052214;28;20923;-43
2022/11/25 01:35:22;;;;;;;11.90;5.57;;;;;;;;;;5052203;28;20526;-43
2022/11/25 01:37:48;;;;;;;10.07;4.90;;;;;;;;;;5052245;28;20489;-43
2022/11/25 01:40:14;;;;;;;12.20;4.83;;;;;;;;;;5052154;28;20434;-43
2022/11/25 01:42:42;;;;;;;9.73;5.07;;;;;;;;;;5052000;28;20228;-43
2022/11/25 01:45:32;;;;;;;9.17;5.60;;;;;;;;;;5052182;28;20418;-43
2022/11/25 01:48:00;;;;;;;10.03;5.30;;;;;;;;;;5052064;28;20487;-43
2022/11/25 01:50:27;;;;;;;11.60;4.90;;;;;;;;;;5051918;28;20467;-43
2022/11/25 01:52:54;;;;;;;9.17;4.83;;;;;;;;;;5052220;28;20435;-43
2022/11/25 01:55:22;;;;;;;9.93;4.93;;;;;;;;;;5051889;28;20925;-43
2022/11/25 01:57:51;;;;;;;7.13;4.83;;;;;;;;;;5051927;28;20438;-43
2022/11/25 02:00:18;;;;;;;13.63;6.77;;;;;;;;;;5051937;28;20476;-43
2022/11/25 02:02:46;;;;;;;11.27;5.40;;;;;;;;;;5052006;28;20453;-43
2022/11/25 02:05:14;;;;;;;9.60;4.83;;;;;;;;;;5051819;28;20561;-43
2022/11/25 02:07:42;;;;;;;12.57;4.93;;;;;;;;;;5053256;28;21085;-43
2022/11/25 02:10:12;;;;;;;9.87;4.63;;;;;;;;;;5055670;28;20809;-43
2022/11/25 02:12:40;;;;;;;13.03;5.63;;;;;;;;;;5055612;28;20443;-43
2022/11/25 02:15:07;;;;;;;9.37;5.20;;;;;;;;;;5055612;28;20458;-43
2022/11/25 02:17:33;;;;;;;11.03;5.57;;;;;;;;;;5055375;28;20435;-43
2022/11/25 02:20:02;;;;;;;11.73;5.53;;;;;;;;;;5055374;28;20461;-43
2022/11/25 02:22:34;;;;;;;14.23;5.33;;;;;;;;;;5070630;28;20441;-43
2022/11/25 02:25:02;;;;;;;9.40;5.30;;;;;;;;;;5075413;28;20469;-43
2022/11/25 02:27:29;;;;;;;12.30;5.23;;;;;;;;;;5075029;28;20477;-43
2022/11/25 02:29:55;;;;;;;13.23;5.63;;;;;;;;;;5075321;28;20788;-43
2022/11/25 02:32:22;;;;;;;13.20;5.23;;;;;;;;;;5075105;28;20437;-43
2022/11/25 02:34:48;;;;;;;8.40;4.70;;;;;;;;;;5075252;28;20848;-43
2022/11/25 02:37:15;;;;;;;8.30;4.77;;;;;;;;;;5075007;28;20788;-43
2022/11/25 02:39:42;;;;;;;13.13;5.10;;;;;;;;;;5075205;28;20473;-43
2022/11/25 02:42:08;;;;;;;10.93;4.77;;;;;;;;;;5075076;28;20438;-43
2022/11/25 02:44:35;;;;;;;9.50;4.73;;;;;;;;;;5074916;28;20441;-43
2022/11/25 02:47:01;;;;;;;8.57;5.23;;;;;;;;;;5074954;28;20710;-43
2022/11/25 02:49:27;;;;;;;9.27;4.70;;;;;;;;;;5074680;28;20481;-43
2022/11/25 02:51:53;;;;;;;11.00;4.97;;;;;;;;;;5075020;28;20448;-43
2022/11/25 02:54:19;;;;;;;12.90;5.37;;;;;;;;;;5074814;28;20441;-43
2022/11/25 02:56:45;;;;;;;8.07;5.00;;;;;;;;;;5074780;28;20438;-43
2022/11/25 02:59:11;;;;;;;11.73;4.97;;;;;;;;;;5074729;28;20444;-43
2022/11/25 03:01:39;;;;;;;8.33;4.63;;;;;;;;;;5074742;28;20442;-43
2022/11/25 03:04:05;;;;;;;11.60;4.87;;;;;;;;;;5074637;28;20562;-43
2022/11/25 03:06:31;;;;;;;8.77;4.77;;;;;;;;;;5074472;28;21173;-43
2022/11/25 03:08:57;;;;;;;13.57;5.30;;;;;;;;;;5074380;28;20505;-43
2022/11/25 03:14:10;;;;;;;10.20;4.30;;;;;;;;;;5063054;28;20472;-43
2022/11/25 03:16:36;;;;;;;10.53;4.63;;;;;;;;;;5074343;28;20437;-43
2022/11/25 03:19:03;;;;;;;8.33;4.43;;;;;;;;;;5073765;28;20563;-43
2022/11/25 03:21:29;;;;;;;12.40;4.37;;;;;;;;;;5074217;28;20433;-43
2022/11/25 03:23:55;;;;;;;9.63;3.80;;;;;;;;;;5074314;28;20429;-43
2022/11/25 03:26:21;;;;;;;12.70;4.80;;;;;;;;;;5074133;28;20436;-43
2022/11/25 03:28:48;;;;;;;8.83;4.27;;;;;;;;;;5074087;28;20474;-43
2022/11/25 03:31:14;;;;;;;10.83;4.27;;;;;;;;;;5074040;28;20441;-43
2022/11/25 03:33:40;;;;;;;9.33;4.43;;;;;;;;;;5073988;28;20487;-43
2022/11/25 03:36:07;;;;;;;9.80;4.30;;;;;;;;;;5074013;28;20514;-43
2022/11/25 03:38:33;;;;;;;11.50;4.30;;;;;;;;;;5073829;28;20445;-43
2022/11/25 03:40:59;;;;;;;6.47;3.67;;;;;;;;;;5073956;28;20487;-43
2022/11/25 03:43:25;;;;;;;9.27;4.33;;;;;;;;;;5073674;28;20438;-43
2022/11/25 03:45:51;;;;;;;13.37;5.17;;;;;;;;;;5073833;28;20200;-43
2022/11/25 03:48:18;;;;;;;8.23;4.03;;;;;;;;;;5073637;28;20556;-43
2022/11/25 03:50:44;;;;;;;14.17;4.77;;;;;;;;;;5073557;28;20548;-43
2022/11/25 03:53:11;;;;;;;8.67;3.77;;;;;;;;;;5073755;28;20438;-43
2022/11/25 03:55:37;;;;;;;10.80;4.33;;;;;;;;;;5073566;28;20507;-43
2022/11/25 03:58:03;;;;;;;13.13;4.07;;;;;;;;;;5073530;28;20445;-43
2022/11/25 04:00:29;;;;;;;9.53;3.93;;;;;;;;;;5073433;28;20437;-43
2022/11/25 04:02:55;;;;;;;8.80;3.80;;;;;;;;;;5073615;28;20495;-43
2022/11/25 04:05:21;;;;;;;10.67;3.57;;;;;;;;;;5073333;28;20433;-43
2022/11/25 04:07:47;;;;;;;10.47;4.23;;;;;;;;;;5073144;28;20474;-43
2022/11/25 04:10:15;;;;;;;10.60;4.07;;;;;;;;;;5073362;28;20191;-43
2022/11/25 04:12:47;;;;;;;11.50;4.07;;;;;;;;;;5073432;28;20546;-43
2022/11/25 04:15:14;;;;;;;8.07;3.60;;;;;;;;;;5073174;28;20430;-43
2022/11/25 04:17:40;;;;;;;7.37;4.33;;;;;;;;;;5073078;28;20437;-43
2022/11/25 04:20:06;;;;;;;11.40;4.43;;;;;;;;;;5073203;28;20422;-43
2022/11/25 04:22:32;;;;;;;12.37;3.83;;;;;;;;;;5072959;28;20442;-43
2022/11/25 04:24:58;;;;;;;7.83;3.20;;;;;;;;;;5073102;28;20984;-43
2022/11/25 04:27:26;;;;;;;11.93;3.83;;;;;;;;;;5072801;28;20465;-43
2022/11/25 04:29:52;;;;;;;13.40;3.37;;;;;;;;;;5072987;28;20437;-43
2022/11/25 04:32:18;;;;;;;11.50;3.50;;;;;;;;;;5072098;28;20437;-43
2022/11/25 04:34:44;;;;;;;8.90;3.63;;;;;;;;;;5072816;28;20438;-43
2022/11/25 04:37:10;;;;;;;10.90;4.57;;;;;;;;;;5072884;28;20803;-43
2022/11/25 04:39:36;;;;;;;8.40;3.50;;;;;;;;;;5072727;28;20944;-43
2022/11/25 04:44:48;;;;;;;10.70;3.40;;;;;;;;;;5072790;28;20930;-43
2022/11/25 04:47:14;;;;;;;8.37;4.30;;;;;;;;;;5072538;28;20480;-43
2022/11/25 04:49:40;;;;;;;9.97;3.83;;;;;;;;;;5072459;28;20567;-43
2022/11/25 04:52:06;;;;;;;9.77;3.60;;;;;;;;;;5072750;28;20199;-43
2022/11/25 04:54:32;;;;;;;8.53;3.37;;;;;;;;;;5072546;28;20434;-43
2022/11/25 04:56:58;;;;;;;9.67;3.23;;;;;;;;;;5072579;28;20491;-43
2022/11/25 04:59:39;;;;;;;7.80;3.07;;;;;;;;;;5072554;28;20438;-43
2022/11/25 05:02:07;;;;;;;12.90;4.10;;;;;;;;;;5072623;28;20203;-43
2022/11/25 05:04:33;;;;;;;9.60;3.90;;;;;;;;;;5072421;28;20476;-43
2022/11/25 05:06:59;;;;;;;8.27;3.43;;;;;;;;;;5072478;28;20425;-43
2022/11/25 05:09:25;;;;;;;11.10;3.67;;;;;;;;;;5072386;28;20505;-43
2022/11/25 05:11:51;;;;;;;8.37;2.97;;;;;;;;;;5072565;28;20512;-43
2022/11/25 05:14:17;;;;;;;7.73;3.17;;;;;;;;;;5072429;28;20575;-43
2022/11/25 05:16:43;;;;;;;10.20;3.50;;;;;;;;;;5072294;28;20438;-43
2022/11/25 05:19:10;;;;;;;6.00;3.17;;;;;;;;;;5072390;28;20430;-43
2022/11/25 05:21:36;;;;;;;9.17;3.13;;;;;;;;;;5072533;28;20473;-43
2022/11/25 05:24:02;;;;;;;7.83;3.50;;;;;;;;;;5072294;28;20868;-43
2022/11/25 05:26:28;;;;;;;7.43;3.60;;;;;;;;;;5072224;28;20195;-43
2022/11/25 05:28:54;;;;;;;8.07;3.73;;;;;;;;;;5072238;28;20572;-43
2022/11/25 05:31:20;;;;;;;11.07;3.50;;;;;;;;;;5072225;28;20512;-43
2022/11/25 05:33:46;;;;;;;9.53;3.10;;;;;;;;;;5072345;28;20621;-43
2022/11/25 05:36:14;;;;;;;6.97;3.30;;;;;;;;;;5072237;28;20477;-43
2022/11/25 05:38:40;;;;;;;8.27;3.33;;;;;;;;;;5072124;28;20208;-43
2022/11/25 05:41:06;;;;;;;7.13;3.33;;;;;;;;;;5072130;28;20771;-43
2022/11/25 05:43:33;;;;;;;4.43;3.20;;;;;;;;;;5074966;28;20445;-42
2022/11/25 05:45:59;;;;;;;6.63;3.40;;;;;;;;;;5076081;28;20433;-42
2022/11/25 05:48:25;;;;;;;12.07;3.27;;;;;;;;;;5075852;28;20481;-43
2022/11/25 05:50:51;;;;;;;9.60;3.43;;;;;;;;;;5075896;28;20482;-43
2022/11/25 05:53:18;;;;;;;8.83;2.90;;;;;;;;;;5075904;28;20975;-42
2022/11/25 05:55:44;;;;;;;11.97;3.77;;;;;;;;;;5075771;28;20199;-42
2022/11/25 05:58:10;;;;;;;9.17;4.07;;;;;;;;;;5075843;28;20430;-42
2022/11/25 06:00:36;;;;;;;9.03;3.67;;;;;;;;;;5075714;28;20521;-43
2022/11/25 06:03:02;;;;;;;11.00;4.33;;;;;;;;;;5075758;28;20214;-42
2022/11/25 06:05:28;;;;;;;13.87;4.10;;;;;;;;;;5075576;28;20433;-43
2022/11/25 06:07:54;;;;;;;13.77;3.53;;;;;;;;;;5075528;28;20229;-43
2022/11/25 06:10:22;;;;;;;11.83;4.23;;;;;;;;;;5075517;28;20465;-43
2022/11/25 06:12:48;;;;;;;9.63;3.80;;;;;;;;;;5075324;28;20597;-44
2022/11/25 06:15:14;;;;;;;13.67;4.67;;;;;;;;;;5075475;28;20195;-44
2022/11/25 06:17:40;;;;;;;10.83;3.77;;;;;;;;;;5074953;28;20426;-44
2022/11/25 06:20:07;;;;;;;8.83;4.43;;;;;;;;;;5075385;28;20944;-43
2022/11/25 06:22:33;;;;;;;12.53;4.57;;;;;;;;;;5073817;28;20204;-44
2022/11/25 06:24:59;;;;;;;11.13;4.60;;;;;;;;;;5075257;28;20437;-44
2022/11/25 06:27:26;;;;;;;11.33;3.90;;;;;;;;;;5074773;28;20485;-44
2022/11/25 06:29:52;;;;;;;9.70;4.23;;;;;;;;;;5075118;28;20196;-44
2022/11/25 06:32:18;;;;;;;12.07;4.33;;;;;;;;;;5075036;28;20480;-43
2022/11/25 06:34:44;;;;;;;9.63;4.53;;;;;;;;;;5075041;28;20482;-43
2022/11/25 06:37:10;;;;;;;13.00;4.10;;;;;;;;;;5074763;28;20942;-43
2022/11/25 06:39:36;;;;;;;11.83;4.00;;;;;;;;;;5074979;28;20433;-43
2022/11/25 06:42:02;;;;;;;6.57;3.57;;;;;;;;;;5074897;28;20204;-43
2022/11/25 06:44:30;;;;;;;12.00;4.40;;;;;;;;;;5074877;28;20433;-43
2022/11/25 06:46:56;;;;;;;19.43;4.67;;;;;;;;;;5075236;28;20545;-43
2022/11/25 06:49:22;;;;;;;11.43;4.60;;;;;;;;;;5074790;28;20267;-43
2022/11/25 06:51:48;;;;;;;12.60;4.67;;;;;;;;;;5074885;28;20438;-43
2022/11/25 06:54:15;;;;;;;9.23;4.17;;;;;;;;;;5073682;28;20867;-43
2022/11/25 06:56:42;;;;;;;15.23;5.00;;;;;;;;;;5074592;28;20434;-44
2022/11/25 06:59:08;;;;;;;13.53;4.57;;;;;;;;;;5074756;28;20426;-43
2022/11/25 07:01:35;;;;;;;11.43;4.60;;;;;;;;;;5074631;28;20438;-43
2022/11/25 07:04:03;;;;;;;11.93;4.70;;;;;;;;;;5074624;28;20434;-43
2022/11/25 07:06:29;;;;;;;9.93;4.57;;;;;;;;;;5074452;28;20438;-43
2022/11/25 07:08:55;;;;;;;7.50;4.27;;;;;;;;;;5074387;28;20565;-42
2022/11/25 07:11:22;;;;;;;11.37;4.93;;;;;;;;;;5074856;28;20951;-43
2022/11/25 07:13:51;;;;;;;10.97;4.50;;;;;;;;;;5074346;28;20441;-43
2022/11/25 07:16:17;;;;;;;9.80;4.30;;;;;;;;;;5067102;28;20963;-42
2022/11/25 07:18:44;;;;;;;12.47;4.97;;;;;;;;;;5054356;28;20896;-42
2022/11/25 07:21:12;;;;;;;9.87;4.67;;;;;;;;;;5054283;28;20430;-42
2022/11/25 07:23:38;;;;;;;10.70;4.40;;;;;;;;;;5054142;28;20933;-43
2022/11/25 07:26:05;;;;;;;11.70;5.07;;;;;;;;;;5054216;28;20447;-43
2022/11/25 07:28:31;;;;;;;10.93;4.50;;;;;;;;;;5053911;28;20475;-43
2022/11/25 07:31:03;;;;;;;11.73;5.30;;;;;;;;;;5054139;28;20803;-43
2022/11/25 07:33:29;;;;;;;13.20;5.17;;;;;;;;;;5054231;28;20446;-43
2022/11/25 07:36:00;;;;;;;10.63;5.03;;;;;;;;;;5054078;28;20773;-42
2022/11/25 07:38:27;;;;;;;9.77;5.03;;;;;;;;;;5053788;28;20443;-43
2022/11/25 07:40:53;;;;;;;10.23;5.03;;;;;;;;;;5053869;28;20482;-42
2022/11/25 07:43:19;;;;;;;8.87;4.90;;;;;;;;;;5053853;28;20522;-42
2022/11/25 07:45:45;;;;;;;12.83;5.20;;;;;;;;;;5053699;28;20438;-43
2022/11/25 07:48:11;;;;;;;15.67;5.20;;;;;;;;;;5053584;28;20466;-42
2022/11/25 07:50:37;;;;;;;9.77;4.80;;;;;;;;;;5053521;28;20232;-43
2022/11/25 07:53:04;;;;;;;13.27;5.20;;;;;;;;;;5053817;28;20211;-42
2022/11/25 07:55:30;;;;;;;11.07;4.83;;;;;;;;;;5053527;28;20842;-42
2022/11/25 07:57:56;;;;;;;11.70;5.60;;;;;;;;;;5053561;28;20504;-42
2022/11/25 08:00:23;;;;;;;15.00;5.10;;;;;;;;;;5053506;28;20204;-42
2022/11/25 08:02:49;;;;;;;9.00;4.70;;;;;;;;;;5053313;28;20439;-42
2022/11/25 08:05:15;;;;;;;12.87;5.70;;;;;;;;;;5053287;28;20717;-41
2022/11/25 08:07:41;;;;;;;13.00;4.87;;;;;;;;;;5055908;28;20227;-42
2022/11/25 08:10:09;;;;;;;14.90;5.30;;;;;;;;;;5063738;28;20522;-42
2022/11/25 08:12:35;;;;;;;11.87;4.90;;;;;;;;;;5052572;28;20487;-42
2022/11/25 08:15:01;;;;;;;12.77;5.37;;;;;;;;;;5052563;28;20431;-42
2022/11/25 08:17:27;;;;;;;12.47;5.37;;;;;;;;;;5052568;28;20818;-42
2022/11/25 08:19:54;;;;;;;8.53;4.67;;;;;;;;;;5052816;28;20435;-42
2022/11/25 08:22:20;;;;;;;10.27;5.40;;;;;;;;;;5053207;28;20196;-43
2022/11/25 08:24:46;;;;;;;12.30;4.93;;;;;;;;;;5053016;28;20557;-42
2022/11/25 08:27:13;;;;;;;14.43;4.97;;;;;;;;;;5052922;28;20216;-42
2022/11/25 08:29:39;;;;;;;10.40;5.03;;;;;;;;;;5053528;28;20253;-42
2022/11/25 08:32:07;;;;;;;10.57;5.67;;;;;;;;;;5053032;28;20200;-42
2022/11/25 08:34:33;;;;;;;11.03;6.00;;;;;;;;;;5052731;28;20445;-43
2022/11/25 08:36:59;;;;;;;11.20;4.87;;;;;;;;;;5052833;28;20732;-44
2022/11/25 08:39:25;;;;;;;18.20;6.10;;;;;;;;;;5052855;28;20200;-49
2022/11/25 08:41:51;;;;;;;15.30;6.50;;;;;;;;;;5052777;28;20219;-42
2022/11/25 08:44:19;;;;;;;12.67;5.33;;;;;;;;;;5052654;28;20920;-41
2022/11/25 08:46:45;;;;;;;11.77;5.50;;;;;;;;;;5052624;28;20291;-42
2022/11/25 08:49:12;;;;;;;12.00;5.13;;;;;;;;;;5052406;28;20244;-43
2022/11/25 08:51:38;;;;;;;13.63;6.13;;;;;;;;;;5052548;28;20216;-43
2022/11/25 08:54:04;;;;;;;14.00;5.63;;;;;;;;;;5052741;28;20738;-43
2022/11/25 08:56:30;;;;;;;11.93;5.30;;;;;;;;;;5052648;28;20460;-43
2022/11/25 08:58:56;;;;;;;10.70;4.80;;;;;;;;;;5052627;28;20302;-43
2022/11/25 09:01:24;;;;;;;11.57;5.43;;;;;;;;;;5052626;28;20196;-42
2022/11/25 09:03:51;;;;;;;12.40;5.30;;;;;;;;;;5052547;28;20200;-42
2022/11/25 09:06:18;;;;;;;12.13;4.77;;;;;;;;;;5052405;28;20637;-42
2022/11/25 09:08:44;;;;;;;11.33;5.70;;;;;;;;;;5052198;28;20707;-44
2022/11/25 09:11:11;;;;;;;10.30;4.67;;;;;;;;;;5052328;28;20447;-43
2022/11/25 09:13:37;;;;;;;10.07;4.80;;;;;;;;;;5052288;28;20277;-42
2022/11/25 09:16:03;;;;;;;11.10;5.03;;;;;;;;;;5052336;28;20203;-42
2022/11/25 09:18:31;;;;;;;13.57;4.83;;;;;;;;;;5051724;28;20815;-43
2022/11/25 09:20:57;;;;;;;10.80;5.43;;;;;;;;;;5052380;28;20196;-43
2022/11/25 09:23:23;;;;;;;11.40;4.40;;;;;;;;;;5052337;28;20194;-43
2022/11/25 09:25:51;;;;;;;14.40;5.10;;;;;;;;;;5052414;28;20647;-43
2022/11/25 09:28:17;;;;;;;10.97;4.37;;;;;;;;;;5052103;28;20470;-43
2022/11/25 09:30:43;;;;;;;10.57;4.97;;;;;;;;;;5052265;28;20210;-43
2022/11/25 09:33:09;;;;;;;11.87;4.67;;;;;;;;;;5052102;28;20203;-43
2022/11/25 09:35:36;;;;;;;9.30;4.97;;;;;;;;;;5052135;28;20199;-43
2022/11/25 09:38:02;;;;;;;11.77;5.03;;;;;;;;;;5052250;28;20196;-43
2022/11/25 09:40:33;;;;;;;10.40;4.47;;;;;;;;;;5052052;28;20196;-42
2022/11/25 09:48:43;;;;;;;10.00;4.40;;;;;;;;;;5052016;28;20309;-43
2022/11/25 09:51:16;;;;;;;12.37;5.17;;;;;;;;;;5052170;28;20200;-43
2022/11/25 09:53:43;;;;;;;13.47;5.07;;;;;;;;;;5052071;28;20242;-43
2022/11/25 09:56:14;;;;;;;11.30;4.50;;;;;;;;;;5052053;28;20211;-43
2022/11/25 09:58:44;;;;;;;10.77;3.93;;;;;;;;;;5052029;28;20208;-43
2022/11/25 10:01:13;;;;;;;7.00;4.40;;;;;;;;;;5052001;28;20204;-43
2022/11/25 10:03:40;;;;;;;11.63;4.50;;;;;;;;;;5051816;28;20200;-43
2022/11/25 10:06:09;;;;;;;15.93;4.77;;;;;;;;;;5051966;28;20192;-43
2022/11/25 10:08:38;;;;;;;12.97;4.80;;;;;;;;;;5051672;28;20228;-43
2022/11/25 10:11:11;;;;;;;11.03;4.77;;;;;;;;;;5051717;28;20208;-43
2022/11/25 10:13:43;;;;;;;10.00;5.00;;;;;;;;;;5051850;28;20200;-43
2022/11/25 10:16:26;;;;;;;11.00;5.70;;;;;;;;;;5051948;28;20207;-43
2022/11/25 10:18:57;;;;;;;14.13;5.33;;;;;;;;;;5052012;28;20200;-43
2022/11/25 10:21:23;;;;;;;12.17;5.07;;;;;;;;;;5051978;28;20238;-43
2022/11/25 10:23:50;;;;;;;13.23;4.90;;;;;;;;;;5051670;28;20196;-43
2022/11/25 10:26:20;;;;;;;12.50;5.10;;;;;;;;;;5051698;28;20701;-41
2022/11/25 10:28:51;;;;;;;11.43;5.00;;;;;;;;;;5061163;28;20227;-43
2022/11/25 10:31:19;;;;;;;9.33;4.63;;;;;;;;;;5075402;28;20195;-41
2022/11/25 10:33:46;;;;;;;10.70;4.47;;;;;;;;;;5075064;28;20203;-41
2022/11/25 10:36:14;;;;;;;7.80;4.27;;;;;;;;;;5073455;28;20551;-43
2022/11/25 10:38:44;;;;;;;11.53;5.20;;;;;;;;;;5073253;28;20184;-44
2022/11/25 10:41:15;;;;;;;10.97;5.47;;;;;;;;;;5075104;28;20253;-44
2022/11/25 10:43:41;;;;;;;14.13;5.87;;;;;;;;;;5068369;28;20195;-43
2022/11/25 10:46:10;;;;;;;16.50;5.50;;;;;;;;;;5066755;28;20253;-44
2022/11/25 10:48:44;;;;;;;13.00;5.93;;;;;;;;;;5065260;28;20307;-43
2022/11/25 10:51:16;;;;;;;12.30;6.47;;;;;;;;;;5065534;28;20238;-44
2022/11/25 10:54:02;;;;;;;13.00;5.77;;;;;;;;;;5054802;28;20200;-44
2022/11/25 10:56:29;;;;;;;11.90;5.53;;;;;;;;;;5054605;28;20275;-43
2022/11/25 10:58:55;;;;;;;11.00;4.97;;;;;;;;;;5054795;28;20216;-44
2022/11/25 11:01:22;;;;;;;13.50;5.60;;;;;;;;;;5054710;28;20697;-43
2022/11/25 11:03:51;;;;;;;13.77;6.10;;;;;;;;;;5054568;28;20563;-44
2022/11/25 11:06:29;;;;;;;14.47;6.70;;;;;;;;;;5054564;28;20196;-45
2022/11/25 11:08:55;;;;;;;12.43;5.73;;;;;;;;;;5054331;28;20713;-42
2022/11/25 11:11:22;;;;;;;12.40;6.00;;;;;;;;;;5054581;28;20253;-43
2022/11/25 11:13:56;;;;;;;13.43;6.23;;;;;;;;;;5054464;28;20200;-43
2022/11/25 11:16:27;;;;;;;12.70;5.67;;;;;;;;;;5054551;28;20294;-43
2022/11/25 11:18:54;;;;;;;13.00;6.03;;;;;;;;;;5054461;28;20211;-43
2022/11/25 11:21:22;;;;;;;12.57;5.77;;;;;;;;;;5054340;28;20196;-43
2022/11/25 11:23:48;;;;;;;15.33;6.10;;;;;;;;;;5052995;28;20211;-43
2022/11/25 11:26:21;;;;;;;14.70;5.90;;;;;;;;;;5054215;28;20204;-42
2022/11/25 11:28:47;;;;;;;12.50;6.20;;;;;;;;;;5054069;28;20231;-43
2022/11/25 11:31:17;;;;;;;17.30;6.50;;;;;;;;;;5054193;28;20200;-43
2022/11/25 11:33:52;;;;;;;10.37;6.63;;;;;;;;;;5054748;28;20333;-43
2022/11/25 11:36:23;;;;;;;11.43;6.13;;;;;;;;;;5054165;28;20236;-44
2022/11/25 11:38:52;;;;;;;15.87;7.60;;;;;;;;;;5053945;28;20200;-42
2022/11/25 11:41:23;;;;;;;15.23;7.00;;;;;;;;;;5055594;28;20195;-42
2022/11/25 11:43:55;;;;;;;11.17;6.33;;;;;;;;;;5053889;28;20711;-43
2022/11/25 11:46:30;;;;;;;12.03;6.80;;;;;;;;;;5053857;28;20200;-43
2022/11/25 11:49:02;;;;;;;14.63;7.00;;;;;;;;;;5053674;28;20315;-44
2022/11/25 11:51:32;;;;;;;13.17;6.40;;;;;;;;;;5053783;28;20196;-44
2022/11/25 11:54:03;;;;;;;12.10;5.97;;;;;;;;;;5051812;28;20200;-44
2022/11/25 11:56:33;;;;;;;10.40;6.00;;;;;;;;;;5052985;28;20226;-43
2022/11/25 11:59:08;;;;;;;10.73;5.90;;;;;;;;;;5053819;28;20208;-43
2022/11/25 12:01:46;;;;;;;11.73;5.60;;;;;;;;;;5053356;28;20204;-44
2022/11/25 12:04:17;;;;;;;7.53;5.93;;;;;;;;;;5053353;28;20204;-44
2022/11/25 12:06:46;;;;;;;8.73;4.67;;;;;;;;;;5053203;28;20212;-44
2022/11/25 12:09:14;;;;;;;9.20;5.40;;;;;;;;;;5053163;28;20228;-44
2022/11/25 12:11:42;;;;;;;11.13;5.53;;;;;;;;;;5052927;28;20200;-44
2022/11/25 12:14:11;;;;;;;9.90;5.53;;;;;;;;;;5055161;28;20239;-44
2022/11/25 12:16:39;;;;;;;7.90;5.13;;;;;;;;;;5056280;28;20200;-43
2022/11/25 12:19:12;;;;;;;9.63;5.60;;;;;;;;;;5053314;28;20188;-43
2022/11/25 12:21:41;;;;;;;9.00;5.40;;;;;;;;;;5053246;28;20231;-43
2022/11/25 12:24:11;;;;;;;10.13;5.60;;;;;;;;;;5053213;28;20196;-43
2022/11/25 12:26:40;;;;;;;9.63;4.80;;;;;;;;;;5053111;28;20200;-43
2022/11/25 12:29:08;;;;;;;8.43;5.87;;;;;;;;;;5053107;28;20311;-44
2022/11/25 12:31:37;;;;;;;11.00;6.13;;;;;;;;;;5052937;28;20558;-44
2022/11/25 12:34:05;;;;;;;9.47;5.93;;;;;;;;;;5053085;28;20201;-44
2022/11/25 12:36:35;;;;;;;12.60;5.57;;;;;;;;;;5050884;28;20196;-43
2022/11/25 12:39:03;;;;;;;9.47;5.83;;;;;;;;;;5052948;28;20200;-44
2022/11/25 12:41:35;;;;;;;7.67;5.50;;;;;;;;;;5052835;28;20200;-44
2022/11/25 12:44:03;;;;;;;9.60;5.60;;;;;;;;;;5052844;28;20650;-43
2022/11/25 12:46:33;;;;;;;11.97;5.80;;;;;;;;;;5052768;28;20219;-44
2022/11/25 12:49:00;;;;;;;11.23;5.33;;;;;;;;;;5052376;28;20240;-44
2022/11/25 12:51:34;;;;;;;9.97;5.73;;;;;;;;;;5052166;28;20231;-44
2022/11/25 12:54:08;;;;;;;11.50;5.87;;;;;;;;;;5052685;28;20294;-43
2022/11/25 12:56:43;;;;;;;11.73;6.97;;;;;;;;;;5052560;28;20209;-44
2022/11/25 12:59:21;;;;;;;9.73;6.23;;;;;;;;;;5052489;28;20206;-44
2022/11/25 13:01:52;;;;;;;9.87;6.30;;;;;;;;;;5052541;28;20265;-43
2022/11/25 13:04:41;;;;;;;11.23;5.77;;;;;;;;;;5052596;28;20196;-43
2022/11/25 13:07:25;;;;;;;15.03;7.37;;;;;;;;;;5061985;28;20208;-44
2022/11/25 13:10:00;;;;;;;11.27;6.70;;;;;;;;;;5051592;28;20228;-43
2022/11/25 13:12:33;;;;;;;13.50;7.13;;;;;;;;;;5052330;28;20204;-44
2022/11/25 13:15:17;;;;;;;11.33;6.77;;;;;;;;;;5052551;28;20192;-44
2022/11/25 13:17:45;;;;;;;10.47;7.37;;;;;;;;;;5052121;28;20209;-44
2022/11/25 13:20:29;;;;;;;12.53;8.07;;;;;;;;;;5052374;28;20200;-44
2022/11/25 13:23:01;;;;;;;12.97;7.50;;;;;;;;;;5052068;28;20665;-43
2022/11/25 13:25:28;;;;;;;12.33;7.20;;;;;;;;;;5052229;28;20611;-43
2022/11/25 13:27:58;;;;;;;15.83;7.23;;;;;;;;;;5052120;28;20247;-43
2022/11/25 13:30:35;;;;;;;13.30;7.50;;;;;;;;;;5052259;28;20208;-45
2022/11/25 13:33:24;;;;;;;10.90;7.07;;;;;;;;;;5052414;28;20206;-44
2022/11/25 13:35:51;;;;;;;9.77;7.30;;;;;;;;;;5052081;28;20192;-44
2022/11/25 13:38:37;;;;;;;15.90;7.10;;;;;;;;;;5052277;28;20219;-45
2022/11/25 13:41:21;;;;;;;10.97;7.20;;;;;;;;;;5052170;28;20200;-44
2022/11/25 13:43:55;;;;;;;10.13;7.17;;;;;;;;;;5052068;28;20239;-44
2022/11/25 13:46:27;;;;;;;11.17;7.83;;;;;;;;;;5052151;28;20199;-43
2022/11/25 13:48:53;;;;;;;11.27;8.27;;;;;;;;;;5051664;28;20216;-43
2022/11/25 13:51:21;;;;;;;11.60;7.73;;;;;;;;;;5052049;28;20212;-43
2022/11/25 13:53:51;;;;;;;13.13;8.40;;;;;;;;;;5051900;28;20203;-42
2022/11/25 13:56:25;;;;;;;13.07;8.37;;;;;;;;;;5052027;28;20223;-43
2022/11/25 13:59:10;;;;;;;9.43;8.07;;;;;;;;;;5051969;28;20195;-43
2022/11/25 14:01:36;;;;;;;11.43;8.37;;;;;;;;;;5051618;28;20184;-42
2022/11/25 14:04:04;;;;;;;12.23;8.77;;;;;;;;;;5054039;28;20290;-44
2022/11/25 14:06:51;;;;;;;11.33;8.33;;;;;;;;;;5055705;28;20208;-45
2022/11/25 14:09:23;;;;;;;12.30;8.93;;;;;;;;;;5055512;28;20295;-44
2022/11/25 14:12:00;;;;;;;10.37;7.73;;;;;;;;;;5055581;28;20239;-46
2022/11/25 14:14:56;;;;;;;11.97;8.40;;;;;;;;;;5055696;28;20744;-42
2022/11/25 14:17:33;;;;;;;12.10;7.90;;;;;;;;;;5053694;28;20330;-45
2022/11/25 14:20:06;;;;;;;12.67;8.03;;;;;;;;;;5055097;28;20209;-44
2022/11/25 14:22:50;;;;;;;12.93;8.90;;;;;;;;;;5055622;28;20204;-44
2022/11/25 14:25:18;;;;;;;12.90;8.97;;;;;;;;;;5044989;28;20203;-45
2022/11/25 14:27:48;;;;;;;12.70;8.43;;;;;;;;;;5055035;28;20549;-44
2022/11/25 14:30:14;;;;;;;14.97;9.20;;;;;;;;;;5055221;28;20472;-44
2022/11/25 14:32:44;;;;;;;12.43;8.87;;;;;;;;;;5055045;28;20196;-45
2022/11/25 14:35:14;;;;;;;11.53;8.20;;;;;;;;;;5054838;28;20192;-44
2022/11/25 14:37:41;;;;;;;11.30;8.60;;;;;;;;;;5054807;28;20667;-44
2022/11/25 14:40:09;;;;;;;12.53;9.10;;;;;;;;;;5054721;28;20204;-45
2022/11/25 14:42:38;;;;;;;11.53;9.27;;;;;;;;;;5054830;28;20224;-43
2022/11/25 14:45:19;;;;;;;10.87;9.10;;;;;;;;;;5054908;28;20204;-45
2022/11/25 14:47:45;;;;;;;13.30;8.77;;;;;;;;;;5054647;28;20231;-45
2022/11/25 14:50:13;;;;;;;14.33;8.80;;;;;;;;;;5054352;28;20305;-45
2022/11/25 14:52:42;;;;;;;14.27;9.43;;;;;;;;;;5054539;28;20200;-44
2022/11/25 14:55:09;;;;;;;16.27;10.87;;;;;;;;;;5054604;28;20223;-43
2022/11/25 14:57:36;;;;;;;15.73;10.87;;;;;;;;;;5054412;28;20204;-44